createdAt,value
2022-10-23T00:00:53.566Z,0.00
2022-10-23T00:01:53.588Z,0.00
2022-10-23T00:02:53.602Z,0.00
2022-10-23T00:03:53.551Z,0.00
2022-10-23T00:04:53.529Z,0.00
2022-10-23T00:05:53.521Z,0.00
2022-10-23T00:06:53.509Z,0.00
2022-10-23T00:07:53.508Z,0.00
2022-10-23T00:08:53.469Z,0.00
2022-10-23T00:09:53.479Z,0.00
2022-10-23T00:10:53.450Z,0.00
2022-10-23T00:11:53.440Z,0.00
2022-10-23T00:12:53.450Z,0.00
2022-10-23T00:13:53.412Z,0.00
2022-10-23T00:14:53.420Z,0.00
2022-10-23T00:15:53.422Z,0.00
2022-10-23T00:16:53.396Z,0.00
2022-10-23T00:17:53.374Z,0.00
2022-10-23T00:18:53.416Z,0.00
2022-10-23T00:19:53.352Z,0.00
2022-10-23T00:20:53.357Z,0.00
2022-10-23T00:21:53.325Z,0.00
2022-10-23T00:22:53.343Z,0.00
2022-10-23T00:23:53.310Z,0.00
2022-10-23T00:24:53.324Z,0.00
2022-10-23T00:25:53.300Z,0.00
2022-10-23T00:26:53.274Z,0.00
2022-10-23T00:27:53.265Z,0.00
2022-10-23T00:28:53.285Z,0.00
2022-10-23T00:29:53.235Z,0.00
2022-10-23T00:30:54.203Z,0.00
2022-10-23T00:31:53.218Z,0.00
2022-10-23T00:32:53.232Z,0.00
2022-10-23T00:33:53.224Z,0.00
2022-10-23T00:34:53.186Z,0.00
2022-10-23T00:35:53.172Z,0.00
2022-10-23T00:36:53.206Z,0.00
2022-10-23T00:37:53.145Z,0.00
2022-10-23T00:38:53.140Z,0.00
2022-10-23T00:39:53.127Z,0.00
2022-10-23T00:40:53.114Z,0.00
2022-10-23T00:41:53.140Z,0.00
2022-10-23T00:42:53.115Z,0.00
2022-10-23T00:43:53.079Z,0.00
2022-10-23T00:44:53.072Z,0.00
2022-10-23T00:45:53.074Z,0.00
2022-10-23T00:46:53.060Z,0.00
2022-10-23T00:47:53.060Z,0.00
2022-10-23T00:48:53.063Z,0.00
2022-10-23T00:49:53.020Z,0.00
2022-10-23T00:50:53.021Z,0.00
2022-10-23T00:51:53.014Z,0.00
2022-10-23T00:52:52.991Z,0.00
2022-10-23T00:54:01.385Z,0.00
2022-10-23T00:54:54.003Z,0.00
2022-10-23T00:55:52.946Z,0.00
2022-10-23T00:56:52.946Z,0.00
2022-10-23T00:57:52.928Z,0.00
2022-10-23T00:58:52.921Z,0.00
2022-10-23T00:59:52.909Z,0.00
2022-10-23T01:00:52.926Z,0.00
2022-10-23T01:01:52.966Z,0.00
2022-10-23T01:02:52.899Z,0.00
2022-10-23T01:03:52.858Z,0.00
2022-10-23T01:04:52.879Z,0.00
2022-10-23T01:05:52.841Z,0.00
2022-10-23T01:06:52.846Z,0.00
2022-10-23T01:07:52.812Z,0.00
2022-10-23T01:08:52.805Z,0.00
2022-10-23T01:09:52.823Z,0.00
2022-10-23T01:10:52.803Z,0.00
2022-10-23T01:11:52.786Z,0.00
2022-10-23T01:12:52.785Z,0.00
2022-10-23T01:13:52.819Z,0.00
2022-10-23T01:14:52.756Z,0.00
2022-10-23T01:15:53.738Z,0.00
2022-10-23T01:16:52.719Z,0.00
2022-10-23T01:17:52.706Z,0.00
2022-10-23T01:18:52.707Z,0.00
2022-10-23T01:19:52.710Z,0.00
2022-10-23T01:20:52.678Z,0.00
2022-10-23T01:21:52.674Z,0.00
2022-10-23T01:22:52.649Z,0.00
2022-10-23T01:23:52.640Z,0.00
2022-10-23T01:24:52.649Z,0.00
2022-10-23T01:25:52.650Z,0.00
2022-10-23T01:26:52.621Z,0.00
2022-10-23T01:27:52.605Z,0.00
2022-10-23T01:28:52.580Z,0.00
2022-10-23T01:29:52.571Z,0.00
2022-10-23T01:30:52.571Z,0.00
2022-10-23T01:31:52.602Z,0.00
2022-10-23T01:32:52.577Z,0.00
2022-10-23T01:33:52.522Z,0.00
2022-10-23T01:34:52.524Z,0.00
2022-10-23T01:35:52.509Z,0.00
2022-10-23T01:36:52.533Z,0.00
2022-10-23T01:37:53.444Z,0.00
2022-10-23T01:38:52.583Z,0.00
2022-10-23T01:39:52.476Z,0.00
2022-10-23T01:40:52.478Z,0.00
2022-10-23T01:41:52.447Z,0.00
2022-10-23T01:42:52.464Z,0.00
2022-10-23T01:43:52.419Z,0.00
2022-10-23T01:44:52.418Z,0.00
2022-10-23T01:45:52.413Z,0.00
2022-10-23T01:46:52.385Z,0.00
2022-10-23T01:47:52.374Z,0.00
2022-10-23T01:48:52.387Z,0.00
2022-10-23T01:49:52.348Z,0.00
2022-10-23T01:50:52.348Z,0.00
2022-10-23T01:51:53.286Z,0.00
2022-10-23T01:52:52.346Z,0.00
2022-10-23T01:53:52.308Z,0.00
2022-10-23T01:54:52.289Z,0.00
2022-10-23T01:55:52.299Z,0.00
2022-10-23T01:56:52.274Z,0.00
2022-10-23T01:57:52.249Z,0.00
2022-10-23T01:58:52.253Z,0.00
2022-10-23T01:59:52.259Z,0.00
2022-10-23T02:00:52.229Z,0.00
2022-10-23T02:01:52.414Z,0.00
2022-10-23T02:02:52.211Z,0.00
2022-10-23T02:03:52.233Z,0.00
2022-10-23T02:04:52.216Z,0.00
2022-10-23T02:05:52.181Z,0.00
2022-10-23T02:06:52.161Z,0.00
2022-10-23T02:07:52.161Z,0.00
2022-10-23T02:08:52.131Z,0.00
2022-10-23T02:09:52.152Z,0.00
2022-10-23T02:10:52.114Z,0.00
2022-10-23T02:11:52.125Z,0.00
2022-10-23T02:12:52.106Z,0.00
2022-10-23T02:13:52.123Z,0.00
2022-10-23T02:14:52.069Z,0.00
2022-10-23T02:15:52.067Z,0.00
2022-10-23T02:16:52.421Z,0.00
2022-10-23T02:17:52.041Z,0.00
2022-10-23T02:18:52.023Z,0.00
2022-10-23T02:19:52.046Z,0.00
2022-10-23T02:20:52.025Z,0.00
2022-10-23T02:21:52.030Z,0.00
2022-10-23T02:22:52.002Z,0.00
2022-10-23T02:23:53.806Z,0.00
2022-10-23T02:24:51.957Z,0.00
2022-10-23T02:25:51.945Z,0.00
2022-10-23T02:26:51.937Z,0.00
2022-10-23T02:27:51.940Z,0.00
2022-10-23T02:28:52.894Z,0.00
2022-10-23T02:29:51.936Z,0.00
2022-10-23T02:30:51.894Z,0.00
2022-10-23T02:31:51.877Z,0.00
2022-10-23T02:32:51.863Z,0.00
2022-10-23T02:33:51.855Z,0.00
2022-10-23T02:34:51.839Z,0.00
2022-10-23T02:35:51.859Z,0.00
2022-10-23T02:36:51.829Z,0.00
2022-10-23T02:37:51.829Z,0.00
2022-10-23T02:38:51.816Z,0.00
2022-10-23T02:39:51.791Z,0.00
2022-10-23T02:40:51.801Z,0.00
2022-10-23T02:41:51.760Z,0.00
2022-10-23T02:42:51.754Z,0.00
2022-10-23T02:43:51.770Z,0.00
2022-10-23T02:44:51.721Z,0.00
2022-10-23T02:45:51.740Z,0.00
2022-10-23T02:46:51.719Z,0.00
2022-10-23T02:47:51.706Z,0.00
2022-10-23T02:48:51.723Z,0.00
2022-10-23T02:49:51.673Z,0.00
2022-10-23T02:50:51.673Z,0.00
2022-10-23T02:51:51.654Z,0.00
2022-10-23T02:52:51.644Z,0.00
2022-10-23T02:53:51.647Z,0.00
2022-10-23T02:54:51.659Z,0.00
2022-10-23T02:55:51.615Z,0.00
2022-10-23T02:56:51.589Z,0.00
2022-10-23T02:57:51.605Z,0.00
2022-10-23T02:58:51.565Z,0.00
2022-10-23T02:59:51.570Z,0.00
2022-10-23T03:00:51.576Z,0.00
2022-10-23T03:01:51.646Z,0.00
2022-10-23T03:02:51.534Z,0.00
2022-10-23T03:03:51.557Z,0.00
2022-10-23T03:04:51.508Z,0.00
2022-10-23T03:05:51.536Z,0.00
2022-10-23T03:06:51.491Z,0.00
2022-10-23T03:07:51.503Z,0.00
2022-10-23T03:08:51.469Z,0.00
2022-10-23T03:09:51.456Z,0.00
2022-10-23T03:10:51.455Z,0.00
2022-10-23T03:11:51.450Z,0.00
2022-10-23T03:12:51.479Z,0.00
2022-10-23T03:13:51.412Z,0.00
2022-10-23T03:14:51.417Z,0.00
2022-10-23T03:15:51.402Z,0.00
2022-10-23T03:16:51.372Z,0.00
2022-10-23T03:17:51.360Z,0.00
2022-10-23T03:18:52.301Z,0.00
2022-10-23T03:19:51.361Z,0.00
2022-10-23T03:20:51.322Z,0.00
2022-10-23T03:21:51.314Z,0.00
2022-10-23T03:22:51.306Z,0.00
2022-10-23T03:23:51.312Z,0.00
2022-10-23T03:24:51.320Z,0.00
2022-10-23T03:25:51.287Z,0.00
2022-10-23T03:26:51.259Z,0.00
2022-10-23T03:27:51.258Z,0.00
2022-10-23T03:28:51.240Z,0.00
2022-10-23T03:29:51.230Z,0.00
2022-10-23T03:30:51.275Z,0.00
2022-10-23T03:31:51.204Z,0.00
2022-10-23T03:32:51.193Z,0.00
2022-10-23T03:33:51.189Z,0.00
2022-10-23T03:34:51.176Z,0.00
2022-10-23T03:35:51.157Z,0.00
2022-10-23T03:36:51.185Z,0.00
2022-10-23T03:37:51.136Z,0.00
2022-10-23T03:38:51.120Z,0.00
2022-10-23T03:39:51.129Z,0.00
2022-10-23T03:40:51.100Z,0.00
2022-10-23T03:41:51.088Z,0.00
2022-10-23T03:42:51.101Z,0.00
2022-10-23T03:43:51.126Z,0.00
2022-10-23T03:44:51.066Z,0.00
2022-10-23T03:45:51.060Z,0.00
2022-10-23T03:46:51.032Z,0.00
2022-10-23T03:47:51.038Z,0.00
2022-10-23T03:48:51.009Z,0.00
2022-10-23T03:49:51.011Z,0.00
2022-10-23T03:50:50.990Z,0.00
2022-10-23T03:51:51.009Z,0.00
2022-10-23T03:52:50.968Z,0.00
2022-10-23T03:53:50.969Z,0.00
2022-10-23T03:54:50.950Z,0.00
2022-10-23T03:55:50.950Z,0.00
2022-10-23T03:56:53.676Z,0.00
2022-10-23T03:57:51.919Z,0.00
2022-10-23T03:58:50.910Z,0.00
2022-10-23T03:59:50.892Z,0.00
2022-10-23T04:00:50.878Z,0.00
2022-10-23T04:01:50.952Z,0.00
2022-10-23T04:02:50.880Z,0.00
2022-10-23T04:03:50.862Z,0.00
2022-10-23T04:04:50.845Z,0.00
2022-10-23T04:05:52.312Z,0.00
2022-10-23T04:06:50.837Z,0.00
2022-10-23T04:07:50.875Z,0.00
2022-10-23T04:08:50.796Z,0.00
2022-10-23T04:09:50.784Z,0.00
2022-10-23T04:10:50.764Z,0.00
2022-10-23T04:11:50.775Z,0.00
2022-10-23T04:12:50.746Z,0.00
2022-10-23T04:13:50.744Z,0.00
2022-10-23T04:14:50.716Z,0.00
2022-10-23T04:15:50.736Z,0.00
2022-10-23T04:16:50.718Z,0.00
2022-10-23T04:17:50.692Z,0.00
2022-10-23T04:18:50.681Z,0.00
2022-10-23T04:19:50.686Z,0.00
2022-10-23T04:20:50.660Z,0.00
2022-10-23T04:21:50.686Z,0.00
2022-10-23T04:22:50.671Z,0.00
2022-10-23T04:23:50.649Z,0.00
2022-10-23T04:24:50.610Z,0.00
2022-10-23T04:25:50.601Z,0.00
2022-10-23T04:26:50.596Z,0.00
2022-10-23T04:27:50.621Z,0.00
2022-10-23T04:28:52.020Z,0.00
2022-10-23T04:29:52.236Z,0.00
2022-10-23T04:30:51.505Z,0.00
2022-10-23T04:31:50.539Z,0.00
2022-10-23T04:32:50.563Z,0.00
2022-10-23T04:33:50.521Z,0.00
2022-10-23T04:34:50.514Z,0.00
2022-10-23T04:35:50.491Z,0.00
2022-10-23T04:36:50.482Z,0.00
2022-10-23T04:37:50.472Z,0.00
2022-10-23T04:38:50.512Z,0.00
2022-10-23T04:39:50.449Z,0.00
2022-10-23T04:40:50.450Z,0.00
2022-10-23T04:41:50.424Z,0.00
2022-10-23T04:42:50.416Z,0.00
2022-10-23T04:43:50.404Z,0.00
2022-10-23T04:44:50.447Z,0.00
2022-10-23T04:45:50.387Z,0.00
2022-10-23T04:46:50.381Z,0.00
2022-10-23T04:47:50.379Z,0.00
2022-10-23T04:48:50.834Z,0.00
2022-10-23T04:49:50.345Z,0.00
2022-10-23T04:50:51.299Z,0.00
2022-10-23T04:51:50.357Z,0.00
2022-10-23T04:52:50.311Z,0.00
2022-10-23T04:53:50.288Z,0.00
2022-10-23T04:54:50.285Z,0.00
2022-10-23T04:55:50.268Z,0.00
2022-10-23T04:56:50.279Z,0.00
2022-10-23T04:57:50.249Z,0.00
2022-10-23T04:58:50.237Z,0.00
2022-10-23T04:59:50.273Z,0.00
2022-10-23T05:00:50.286Z,0.00
2022-10-23T05:01:50.226Z,0.00
2022-10-23T05:02:50.214Z,0.00
2022-10-23T05:03:50.202Z,0.00
2022-10-23T05:04:50.186Z,0.00
2022-10-23T05:05:50.171Z,0.00
2022-10-23T05:06:50.207Z,0.00
2022-10-23T05:07:51.132Z,0.00
2022-10-23T05:08:50.128Z,0.00
2022-10-23T05:09:50.120Z,0.00
2022-10-23T05:10:50.113Z,0.00
2022-10-23T05:11:50.117Z,0.00
2022-10-23T05:12:51.034Z,0.00
2022-10-23T05:13:50.121Z,0.00
2022-10-23T05:14:50.062Z,0.00
2022-10-23T05:15:50.055Z,0.00
2022-10-23T05:16:50.043Z,0.00
2022-10-23T05:17:50.042Z,0.00
2022-10-23T05:18:50.018Z,0.00
2022-10-23T05:19:50.034Z,0.00
2022-10-23T05:20:50.103Z,0.00
2022-10-23T05:21:49.994Z,0.00
2022-10-23T05:22:49.983Z,0.00
2022-10-23T05:23:50.043Z,0.00
2022-10-23T05:24:50.764Z,0.00
2022-10-23T05:25:49.976Z,0.00
2022-10-23T05:26:49.937Z,0.00
2022-10-23T05:27:49.946Z,0.00
2022-10-23T05:28:49.910Z,0.00
2022-10-23T05:29:49.938Z,0.00
2022-10-23T05:30:49.888Z,0.00
2022-10-23T05:31:49.875Z,0.00
2022-10-23T05:32:49.868Z,0.00
2022-10-23T05:33:49.878Z,0.00
2022-10-23T05:34:49.928Z,0.00
2022-10-23T05:35:49.928Z,0.00
2022-10-23T05:36:49.847Z,0.00
2022-10-23T05:37:49.838Z,0.00
2022-10-23T05:38:49.842Z,0.00
2022-10-23T05:39:49.799Z,0.00
2022-10-23T05:40:49.770Z,0.00
2022-10-23T05:41:49.862Z,0.00
2022-10-23T05:42:50.730Z,0.00
2022-10-23T05:43:49.830Z,0.00
2022-10-23T05:44:49.761Z,0.00
2022-10-23T05:45:49.731Z,0.00
2022-10-23T05:46:49.780Z,0.00
2022-10-23T05:47:49.708Z,0.00
2022-10-23T05:48:49.759Z,4.00
2022-10-23T05:49:49.693Z,4.00
2022-10-23T05:50:49.844Z,0.00
2022-10-23T05:51:49.703Z,4.00
2022-10-23T05:52:49.777Z,4.00
2022-10-23T05:53:49.661Z,4.00
2022-10-23T05:54:49.695Z,4.00
2022-10-23T05:55:49.675Z,4.00
2022-10-23T05:56:49.650Z,8.00
2022-10-23T05:57:49.617Z,8.00
2022-10-23T05:58:49.588Z,12.00
2022-10-23T05:59:51.039Z,12.00
2022-10-23T06:00:49.562Z,12.00
2022-10-23T06:01:49.653Z,12.00
2022-10-23T06:02:49.552Z,16.00
2022-10-23T06:03:49.537Z,20.00
2022-10-23T06:04:51.005Z,20.00
2022-10-23T06:05:49.505Z,20.00
2022-10-23T06:06:49.524Z,24.00
2022-10-23T06:07:49.492Z,28.00
2022-10-23T06:08:49.469Z,28.00
2022-10-23T06:09:50.484Z,32.00
2022-10-23T06:10:49.484Z,36.00
2022-10-23T06:11:49.443Z,36.00
2022-10-23T06:12:49.439Z,44.00
2022-10-23T06:13:49.517Z,48.00
2022-10-23T06:14:49.598Z,52.00
2022-10-23T06:15:49.493Z,52.00
2022-10-23T06:16:49.542Z,60.00
2022-10-23T06:17:49.375Z,68.00
2022-10-23T06:18:49.349Z,76.00
2022-10-23T06:19:49.359Z,80.00
2022-10-23T06:20:49.344Z,88.00
2022-10-23T06:21:49.524Z,100.00
2022-10-23T06:22:49.390Z,104.00
2022-10-23T06:23:49.314Z,108.00
2022-10-23T06:24:49.329Z,116.00
2022-10-23T06:25:49.341Z,124.00
2022-10-23T06:26:49.313Z,128.00
2022-10-23T06:27:49.378Z,136.00
2022-10-23T06:28:49.236Z,152.00
2022-10-23T06:29:49.305Z,156.00
2022-10-23T06:30:50.177Z,164.00
2022-10-23T06:31:49.250Z,168.00
2022-10-23T06:32:49.195Z,172.00
2022-10-23T06:33:49.265Z,184.00
2022-10-23T06:34:49.178Z,196.00
2022-10-23T06:35:49.151Z,212.00
2022-10-23T06:36:49.159Z,224.00
2022-10-23T06:37:49.171Z,236.00
2022-10-23T06:38:49.196Z,244.00
2022-10-23T06:39:49.128Z,256.00
2022-10-23T06:40:49.145Z,268.00
2022-10-23T06:41:49.122Z,276.00
2022-10-23T06:42:49.174Z,288.00
2022-10-23T06:43:49.127Z,292.00
2022-10-23T06:44:49.104Z,296.00
2022-10-23T06:45:49.064Z,304.00
2022-10-23T06:46:49.055Z,316.00
2022-10-23T06:47:49.019Z,328.00
2022-10-23T06:48:49.082Z,344.00
2022-10-23T06:49:49.030Z,360.00
2022-10-23T06:50:49.025Z,372.00
2022-10-23T06:51:48.989Z,384.00
2022-10-23T06:52:48.977Z,396.00
2022-10-23T06:53:49.016Z,396.00
2022-10-23T06:54:48.984Z,396.00
2022-10-23T06:55:51.441Z,404.00
2022-10-23T06:56:50.903Z,412.00
2022-10-23T06:57:48.993Z,416.00
2022-10-23T06:58:48.948Z,428.00
2022-10-23T06:59:48.894Z,440.00
2022-10-23T07:00:49.020Z,460.00
2022-10-23T07:01:49.048Z,476.00
2022-10-23T07:02:48.951Z,484.00
2022-10-23T07:03:48.858Z,492.00
2022-10-23T07:04:48.893Z,500.00
2022-10-23T07:05:48.836Z,512.00
2022-10-23T07:06:48.834Z,520.00
2022-10-23T07:07:48.805Z,536.00
2022-10-23T07:08:48.843Z,552.00
2022-10-23T07:09:48.783Z,568.00
2022-10-23T07:10:48.776Z,584.00
2022-10-23T07:11:48.758Z,600.00
2022-10-23T07:12:48.785Z,620.00
2022-10-23T07:13:48.737Z,644.00
2022-10-23T07:14:48.777Z,672.00
2022-10-23T07:15:48.724Z,692.00
2022-10-23T07:16:48.698Z,712.00
2022-10-23T07:17:50.173Z,728.00
2022-10-23T07:18:48.702Z,740.00
2022-10-23T07:19:48.680Z,752.00
2022-10-23T07:20:48.701Z,760.00
2022-10-23T07:21:48.654Z,740.00
2022-10-23T07:22:48.648Z,704.00
2022-10-23T07:23:48.629Z,680.00
2022-10-23T07:24:48.636Z,664.00
2022-10-23T07:25:48.620Z,660.00
2022-10-23T07:26:48.633Z,668.00
2022-10-23T07:27:48.605Z,668.00
2022-10-23T07:28:48.610Z,668.00
2022-10-23T07:29:48.561Z,672.00
2022-10-23T07:30:48.553Z,688.00
2022-10-23T07:31:48.565Z,720.00
2022-10-23T07:32:48.570Z,756.00
2022-10-23T07:33:48.506Z,792.00
2022-10-23T07:34:48.515Z,828.00
2022-10-23T07:35:48.483Z,864.00
2022-10-23T07:36:48.509Z,896.00
2022-10-23T07:37:48.481Z,944.00
2022-10-23T07:38:48.492Z,992.00
2022-10-23T07:39:48.445Z,1048.00
2022-10-23T07:40:48.459Z,1092.00
2022-10-23T07:41:48.469Z,1116.00
2022-10-23T07:42:48.431Z,1144.00
2022-10-23T07:43:48.430Z,1180.00
2022-10-23T07:44:48.420Z,1204.00
2022-10-23T07:45:48.423Z,1220.00
2022-10-23T07:46:48.374Z,1232.00
2022-10-23T07:47:48.413Z,1240.00
2022-10-23T07:48:48.364Z,1248.00
2022-10-23T07:49:48.342Z,1268.00
2022-10-23T07:50:48.631Z,1296.00
2022-10-23T07:51:51.265Z,1312.00
2022-10-23T07:52:48.391Z,1336.00
2022-10-23T07:53:48.353Z,1384.00
2022-10-23T07:54:48.508Z,1444.00
2022-10-23T07:55:48.444Z,1464.00
2022-10-23T07:56:48.416Z,1456.00
2022-10-23T07:57:53.591Z,1460.00
2022-10-23T07:58:48.524Z,1456.00
2022-10-23T07:59:48.392Z,1472.00
2022-10-23T08:00:48.517Z,1496.00
2022-10-23T08:01:50.476Z,1508.00
2022-10-23T08:02:48.190Z,1520.00
2022-10-23T08:03:48.223Z,1512.00
2022-10-23T08:04:48.222Z,1504.00
2022-10-23T08:05:48.256Z,1496.00
2022-10-23T08:06:48.223Z,1524.00
2022-10-23T08:07:48.301Z,1552.00
2022-10-23T08:08:48.321Z,1552.00
2022-10-23T08:09:48.285Z,1544.00
2022-10-23T08:10:48.198Z,1548.00
2022-10-23T08:11:48.096Z,1568.00
2022-10-23T08:12:48.100Z,1592.00
2022-10-23T08:13:48.069Z,1580.00
2022-10-23T08:14:48.074Z,1536.00
2022-10-23T08:15:48.123Z,1472.00
2022-10-23T08:16:48.040Z,1448.00
2022-10-23T08:17:48.014Z,1460.00
2022-10-23T08:18:48.015Z,1504.00
2022-10-23T08:19:47.995Z,1552.00
2022-10-23T08:20:47.988Z,1572.00
2022-10-23T08:21:48.025Z,1576.00
2022-10-23T08:22:47.969Z,1588.00
2022-10-23T08:23:47.959Z,1592.00
2022-10-23T08:24:47.947Z,1572.00
2022-10-23T08:25:47.977Z,1580.00
2022-10-23T08:26:47.926Z,1584.00
2022-10-23T08:27:49.588Z,1584.00
2022-10-23T08:28:47.932Z,1624.00
2022-10-23T08:29:47.894Z,1676.00
2022-10-23T08:30:47.888Z,1720.00
2022-10-23T08:31:47.867Z,1744.00
2022-10-23T08:32:47.849Z,1744.00
2022-10-23T08:34:47.830Z,1748.00
2022-10-23T08:35:47.828Z,1784.00
2022-10-23T08:36:47.862Z,1812.00
2022-10-23T08:37:47.813Z,1840.00
2022-10-23T08:38:47.810Z,1880.00
2022-10-23T08:39:50.131Z,1920.00
2022-10-23T08:40:47.777Z,1948.00
2022-10-23T08:41:47.791Z,1968.00
2022-10-23T08:42:47.889Z,1984.00
2022-10-23T08:43:47.813Z,2000.00
2022-10-23T08:44:47.825Z,2036.00
2022-10-23T08:45:47.833Z,2060.00
2022-10-23T08:46:47.717Z,2068.00
2022-10-23T08:47:47.907Z,2068.00
2022-10-23T08:48:48.639Z,2056.00
2022-10-23T08:49:47.688Z,2032.00
2022-10-23T08:50:47.659Z,1996.00
2022-10-23T08:51:47.692Z,1960.00
2022-10-23T08:52:47.656Z,1920.00
2022-10-23T08:53:48.664Z,1904.00
2022-10-23T08:54:47.617Z,1872.00
2022-10-23T08:55:47.708Z,1820.00
2022-10-23T08:56:47.606Z,1752.00
2022-10-23T08:57:47.606Z,1700.00
2022-10-23T08:58:47.597Z,1676.00
2022-10-23T08:59:47.578Z,1664.00
2022-10-23T09:00:47.629Z,1640.00
2022-10-23T09:01:47.673Z,1604.00
2022-10-23T09:02:47.519Z,1560.00
2022-10-23T09:03:47.539Z,1572.00
2022-10-23T09:04:47.510Z,1640.00
2022-10-23T09:05:47.502Z,1756.00
2022-10-23T09:06:47.512Z,1872.00
2022-10-23T09:07:47.479Z,1964.00
2022-10-23T09:08:47.553Z,2032.00
2022-10-23T09:09:47.464Z,2072.00
2022-10-23T09:10:49.327Z,2148.00
2022-10-23T09:11:47.430Z,2260.00
2022-10-23T09:12:47.419Z,2348.00
2022-10-23T09:13:47.437Z,2340.00
2022-10-23T09:14:47.437Z,2296.00
2022-10-23T09:15:47.393Z,2252.00
2022-10-23T09:16:47.365Z,2228.00
2022-10-23T09:17:48.395Z,2236.00
2022-10-23T09:18:47.446Z,2240.00
2022-10-23T09:19:47.358Z,2216.00
2022-10-23T09:20:47.349Z,2192.00
2022-10-23T09:21:47.315Z,2204.00
2022-10-23T09:22:47.346Z,2208.00
2022-10-23T09:23:47.297Z,2216.00
2022-10-23T09:24:51.558Z,2220.00
2022-10-23T09:25:48.288Z,2224.00
2022-10-23T09:26:47.255Z,2244.00
2022-10-23T09:27:48.700Z,2308.00
2022-10-23T09:28:47.303Z,2360.00
2022-10-23T09:29:47.234Z,2368.00
2022-10-23T09:30:47.214Z,2340.00
2022-10-23T09:31:47.218Z,2308.00
2022-10-23T09:32:47.250Z,2356.00
2022-10-23T09:33:48.208Z,2492.00
2022-10-23T09:34:47.310Z,2596.00
2022-10-23T09:35:47.204Z,2612.00
2022-10-23T09:36:47.177Z,2576.00
2022-10-23T09:37:47.151Z,2552.00
2022-10-23T09:38:48.075Z,2516.00
2022-10-23T09:39:47.179Z,2432.00
2022-10-23T09:40:47.113Z,2392.00
2022-10-23T09:41:47.108Z,2388.00
2022-10-23T09:42:47.107Z,2284.00
2022-10-23T09:43:47.073Z,2356.00
2022-10-23T09:44:47.079Z,2440.00
2022-10-23T09:45:47.057Z,2440.00
2022-10-23T09:46:47.130Z,2460.00
2022-10-23T09:47:47.064Z,2496.00
2022-10-23T09:48:47.024Z,2540.00
2022-10-23T09:49:47.024Z,2568.00
2022-10-23T09:50:47.007Z,2552.00
2022-10-23T09:51:47.015Z,2544.00
2022-10-23T09:52:47.170Z,2576.00
2022-10-23T09:53:47.335Z,2612.00
2022-10-23T09:54:46.959Z,2628.00
2022-10-23T09:55:48.026Z,2648.00
2022-10-23T09:57:47.326Z,2644.00
2022-10-23T09:58:47.083Z,2684.00
2022-10-23T09:59:46.958Z,2768.00
2022-10-23T10:00:46.953Z,2824.00
2022-10-23T10:01:47.125Z,2860.00
2022-10-23T10:02:47.015Z,2820.00
2022-10-23T10:03:46.939Z,2792.00
2022-10-23T10:04:46.927Z,2768.00
2022-10-23T10:05:46.911Z,2728.00
2022-10-23T10:06:47.765Z,2660.00
2022-10-23T10:07:46.807Z,2600.00
2022-10-23T10:08:46.784Z,2568.00
2022-10-23T10:09:46.804Z,2536.00
2022-10-23T10:10:46.781Z,2484.00
2022-10-23T10:11:46.871Z,2428.00
2022-10-23T10:12:46.754Z,2384.00
2022-10-23T10:13:46.750Z,2360.00
2022-10-23T10:14:46.734Z,2336.00
2022-10-23T10:15:46.749Z,2312.00
2022-10-23T10:16:46.724Z,2300.00
2022-10-23T10:17:46.743Z,2304.00
2022-10-23T10:18:46.682Z,2344.00
2022-10-23T10:19:46.709Z,2388.00
2022-10-23T10:20:46.673Z,2444.00
2022-10-23T10:21:46.660Z,2500.00
2022-10-23T10:22:46.680Z,2572.00
2022-10-23T10:23:46.638Z,2616.00
2022-10-23T10:24:46.667Z,2604.00
2022-10-23T10:25:51.360Z,2564.00
2022-10-23T10:26:47.616Z,2492.00
2022-10-23T10:27:46.787Z,2436.00
2022-10-23T10:28:46.607Z,2476.00
2022-10-23T10:29:47.518Z,2572.00
2022-10-23T10:30:47.528Z,2676.00
2022-10-23T10:31:50.566Z,2732.00
2022-10-23T10:32:47.520Z,2716.00
2022-10-23T10:33:46.724Z,2696.00
2022-10-23T10:34:46.510Z,2712.00
2022-10-23T10:35:46.511Z,2744.00
2022-10-23T10:36:46.653Z,2776.00
2022-10-23T10:37:49.355Z,2832.00
2022-10-23T10:38:47.431Z,2904.00
2022-10-23T10:39:46.480Z,3008.00
2022-10-23T10:40:46.449Z,3088.00
2022-10-23T10:41:46.836Z,3128.00
2022-10-23T10:42:46.442Z,3140.00
2022-10-23T10:43:46.407Z,3144.00
2022-10-23T10:44:46.437Z,3128.00
2022-10-23T10:45:46.404Z,3072.00
2022-10-23T10:46:46.402Z,3072.00
2022-10-23T10:47:47.815Z,3132.00
2022-10-23T10:48:46.364Z,3192.00
2022-10-23T10:49:46.364Z,3244.00
2022-10-23T10:50:46.335Z,3332.00
2022-10-23T10:51:46.315Z,3396.00
2022-10-23T10:52:48.985Z,3408.00
2022-10-23T10:53:46.300Z,3328.00
2022-10-23T10:54:46.484Z,3328.00
2022-10-23T10:55:47.236Z,3344.00
2022-10-23T10:56:46.260Z,3372.00
2022-10-23T10:57:46.710Z,3304.00
2022-10-23T10:58:46.289Z,3280.00
2022-10-23T10:59:46.232Z,3236.00
2022-10-23T11:00:46.252Z,3136.00
2022-10-23T11:01:46.374Z,3144.00
2022-10-23T11:02:46.430Z,3032.00
2022-10-23T11:03:46.309Z,3008.00
2022-10-23T11:04:46.247Z,3092.00
2022-10-23T11:05:46.227Z,3276.00
2022-10-23T11:06:46.357Z,3284.00
2022-10-23T11:07:46.387Z,3252.00
2022-10-23T11:08:56.551Z,3156.00
2022-10-23T11:09:47.239Z,3084.00
2022-10-23T11:10:46.125Z,3096.00
2022-10-23T11:11:46.103Z,2984.00
2022-10-23T11:12:46.092Z,2728.00
2022-10-23T11:13:46.112Z,2580.00
2022-10-23T11:14:46.087Z,2412.00
2022-10-23T11:15:46.417Z,2160.00
2022-10-23T11:16:46.052Z,1916.00
2022-10-23T11:17:46.395Z,1692.00
2022-10-23T11:18:46.034Z,1576.00
2022-10-23T11:19:46.149Z,1752.00
2022-10-23T11:20:46.034Z,1972.00
2022-10-23T11:21:46.021Z,2260.00
2022-10-23T11:22:46.248Z,2184.00
2022-10-23T11:23:46.353Z,2124.00
2022-10-23T11:24:49.039Z,2648.00
2022-10-23T11:25:46.815Z,2888.00
2022-10-23T11:26:46.073Z,2932.00
2022-10-23T11:27:46.234Z,3044.00
2022-10-23T11:28:45.934Z,3020.00
2022-10-23T11:29:45.928Z,2932.00
2022-10-23T11:30:45.888Z,2740.00
2022-10-23T11:31:45.931Z,2428.00
2022-10-23T11:32:45.911Z,2296.00
2022-10-23T11:33:45.865Z,2252.00
2022-10-23T11:34:45.853Z,1956.00
2022-10-23T11:35:45.828Z,1632.00
2022-10-23T11:36:45.826Z,1624.00
2022-10-23T11:37:46.100Z,1880.00
2022-10-23T11:38:45.821Z,1848.00
2022-10-23T11:39:45.787Z,1724.00
2022-10-23T11:40:45.804Z,1804.00
2022-10-23T11:41:45.763Z,1916.00
2022-10-23T11:42:52.781Z,1748.00
2022-10-23T11:43:46.415Z,1520.00
2022-10-23T11:44:46.425Z,1500.00
2022-10-23T11:45:45.736Z,1616.00
2022-10-23T11:46:45.740Z,1788.00
2022-10-23T11:47:45.700Z,1848.00
2022-10-23T11:48:45.699Z,1824.00
2022-10-23T11:49:45.678Z,1732.00
2022-10-23T11:50:45.917Z,1488.00
2022-10-23T11:51:45.677Z,1272.00
2022-10-23T11:52:50.599Z,1176.00
2022-10-23T11:53:46.639Z,1136.00
2022-10-23T11:54:45.649Z,1284.00
2022-10-23T11:55:45.653Z,1540.00
2022-10-23T11:56:45.609Z,1476.00
2022-10-23T11:57:45.594Z,1444.00
2022-10-23T11:58:45.653Z,1556.00
2022-10-23T11:59:45.688Z,1612.00
2022-10-23T12:00:45.700Z,1776.00
2022-10-23T12:01:46.462Z,2336.00
2022-10-23T12:02:46.027Z,3000.00
2022-10-23T12:03:45.524Z,4964.00
2022-10-23T12:04:45.531Z,3656.00
2022-10-23T12:05:48.595Z,3512.00
2022-10-23T12:07:08.159Z,4056.00
2022-10-23T12:07:45.705Z,4020.00
2022-10-23T12:08:45.652Z,3704.00
2022-10-23T12:09:45.536Z,3652.00
2022-10-23T12:10:45.465Z,3608.00
2022-10-23T12:11:45.531Z,3852.00
2022-10-23T12:12:45.497Z,4044.00
2022-10-23T12:13:45.714Z,4428.00
2022-10-23T12:14:47.070Z,4556.00
2022-10-23T12:15:45.679Z,5516.00
2022-10-23T12:16:46.166Z,6112.00
2022-10-23T12:17:45.785Z,5900.00
2022-10-23T12:18:45.359Z,6368.00
2022-10-23T12:19:45.650Z,6680.00
2022-10-23T12:20:45.338Z,5592.00
2022-10-23T12:21:45.400Z,6824.00
2022-10-23T12:22:45.309Z,7944.00
2022-10-23T12:23:48.096Z,6648.00
2022-10-23T12:24:45.288Z,6044.00
2022-10-23T12:25:45.299Z,5248.00
2022-10-23T12:26:45.289Z,4588.00
2022-10-23T12:27:45.586Z,4436.00
2022-10-23T12:28:45.255Z,3196.00
2022-10-23T12:29:45.590Z,3440.00
2022-10-23T12:30:45.302Z,3432.00
2022-10-23T12:31:47.821Z,3408.00
2022-10-23T12:32:45.563Z,3384.00
2022-10-23T12:33:45.248Z,3296.00
2022-10-23T12:34:45.204Z,3144.00
2022-10-23T12:35:45.573Z,3128.00
2022-10-23T12:36:45.164Z,3172.00
2022-10-23T12:37:45.617Z,3192.00
2022-10-23T12:38:45.133Z,3204.00
2022-10-23T12:39:45.157Z,3284.00
2022-10-23T12:40:45.136Z,3400.00
2022-10-23T12:41:45.101Z,3504.00
2022-10-23T12:42:45.433Z,3556.00
2022-10-23T12:43:45.114Z,3552.00
2022-10-23T12:44:45.080Z,3560.00